Tiptonville, TN

12:24 PM CST on February 14, 2016 (GMT -0600)
Mt. Moriah R/C Airport | | Change Station
CLOSE
Current Station
Personal Weather Station
Location: Obion, TN
Elevation: 315 ft
Nearby Weather Stations
Active Advisory: Winter Weather Advisory

Elev 315 ft 36.29 °N, 89.23 °W | Updated 4 minutes ago

Overcast
Overcast
30.4 °F
Feels Like 30 °F
N
1.3
Wind Variable Wind from NNE
Gusts 2.5 mph

Today
High -- | Low -- °F
--% Chance of Precip.
Yesterday
High -- | Low -- °F
Precip. -- in
Pressure 30.11 in
Visibility 10.0 miles
Clouds Overcast 3300 ft
Windchill 30 °F
Dew Point 14 °F
Humidity 51%
Rainfall 0.00 in
Snow Depth Not available.
6:47 AM 5:37 PM
Waxing Crescent, 44% visible
METAR KDYR 141815Z AUTO 15009G15KT 10SM OVC033 M01/M06 A3011 RMK AO1
Pressure 30.11 in
Visibility 10.0 miles
Clouds Overcast 3300 ft
Windchill 30 °F
Dew Point 14 °F
Humidity 51%
Rainfall 0.00 in
Snow Depth Not available.
6:47 AM 5:37 PM
Waxing Crescent, 44% visible
METAR KDYR 141815Z AUTO 15009G15KT 10SM OVC033 M01/M06 A3011 RMK AO1

10-Day Weather Forecast

Almanac

Astronomy

Feb. 14, 2016 Rise Set
Actual Time
Civil Twilight
Nautical Twilight
Astronomical Twilight
Moon
Length of Visible Light
Length of Day
Tomorrow will be .
, % of the Moon is Illuminated

Today's Extremes

State Highs State Lows

Community

WunderPhotos

Upload Photos

1,892,869 photos uploaded!

WunderBlog® & News

Nearby

Air Quality

  Air Quality AQ Index Pollutant
Not available.

Snow Depth

Station Depth Elevation

Earthquake Activity

City Distance Mag. Time & Date
Minimum magnitude displayed is 2.5.

Coastal Water Temperatures

Place Temperature

Stations

Nearby Weather Stations

Station Location Temp. Windchill Dew Point Humidity Wind Precip. Elev Updated Type
                   

Watches & Warnings

Winter Weather Advisory
Issued: 10:22 AM CST Feb. 14, 2016 – National Weather Service

... Winter Weather Advisory remains in effect until 6 PM CST this
evening...

* snow/sleet/ice accumulations... less than 0.25 inch of sleet
accumulation is expected with less than 0.10 inch of ice
accumulation possible.

* Timing... 6 am CST today through 6 PM CST this evening.

* Impacts... ice on roadways could create hazardous travel in the
advisory area. Bridges and overpasses as well as other
elevated roadways will be prone to ice and could become slick.

Precautionary/preparedness actions...

A Winter Weather Advisory means that periods of snow... sleet... or
freezing rain will cause travel difficulties. Be prepared for
slippery roads... and use caution while driving.



Zdm